sensor_id;sensor_type;location;lat;lon;timestamp;pressure;altitude;pressure_sealevel;temperature;humidity
68320;BME280;55168;51.120;17.024;2023-02-28T00:00:00;101540;;;-0.6;100.0
68320;BME280;55168;51.120;17.024;2023-02-28T00:01:00;101540;;;-0.6;100.0
68320;BME280;55168;51.120;17.024;2023-02-28T00:02:00;101540;;;-0.6;100.0
68320;BME280;55168;51.120;17.024;2023-02-28T00:03:00;101540;;;-0.6;100.0
68320;BME280;55168;51.120;17.024;2023-02-28T00:04:00;101540;;;-0.6;100.0
68320;BME280;55168;51.120;17.024;2023-02-28T00:05:00;101540;;;-0.6;100.0
68320;BME280;55168;51.120;17.024;2023-02-28T00:06:02;101540;;;-0.5;100.0
68320;BME280;55168;51.120;17.024;2023-02-28T00:07:00;101540;;;-0.6;100.0
68320;BME280;55168;51.120;17.024;2023-02-28T00:08:00;101540;;;-0.6;100.0
68320;BME280;55168;51.120;17.024;2023-02-28T00:09:00;101540;;;-0.6;100.0
68320;BME280;55168;51.120;17.024;2023-02-28T00:10:00;101540;;;-0.6;100.0
68320;BME280;55168;51.120;17.024;2023-02-28T00:11:01;101540;;;-0.6;100.0
68320;BME280;55168;51.120;17.024;2023-02-28T00:12:00;101540;;;-0.6;100.0
68320;BME280;55168;51.120;17.024;2023-02-28T00:13:02;101540;;;-0.6;100.0
68320;BME280;55168;51.120;17.024;2023-02-28T00:14:00;101550;;;-0.6;100.0
68320;BME280;55168;51.120;17.024;2023-02-28T00:15:00;101550;;;-0.6;100.0
68320;BME280;55168;51.120;17.024;2023-02-28T00:16:00;101540;;;-0.6;100.0
68320;BME280;55168;51.120;17.024;2023-02-28T00:17:00;101550;;;-0.7;100.0
68320;BME280;55168;51.120;17.024;2023-02-28T00:18:01;101550;;;-0.7;100.0
68320;BME280;55168;51.120;17.024;2023-02-28T00:19:00;101540;;;-0.7;100.0
68320;BME280;55168;51.120;17.024;2023-02-28T00:20:00;101540;;;-0.7;100.0
68320;BME280;55168;51.120;17.024;2023-02-28T00:21:00;101540;;;-0.7;100.0
68320;BME280;55168;51.120;17.024;2023-02-28T00:22:00;101540;;;-0.6;100.0
68320;BME280;55168;51.120;17.024;2023-02-28T00:23:00;101540;;;-0.7;100.0
68320;BME280;55168;51.120;17.024;2023-02-28T00:24:00;101540;;;-0.7;100.0
68320;BME280;55168;51.120;17.024;2023-02-28T00:25:00;101540;;;-0.7;100.0
68320;BME280;55168;51.120;17.024;2023-02-28T00:26:00;101540;;;-0.7;100.0
68320;BME280;55168;51.120;17.024;2023-02-28T00:27:00;101540;;;-0.7;100.0
68320;BME280;55168;51.120;17.024;2023-02-28T00:28:00;101540;;;-0.7;100.0
68320;BME280;55168;51.120;17.024;2023-02-28T00:29:00;101540;;;-0.7;100.0
68320;BME280;55168;51.120;17.024;2023-02-28T00:30:00;101540;;;-0.6;100.0
68320;BME280;55168;51.120;17.024;2023-02-28T00:31:00;101540;;;-0.6;100.0
68320;BME280;55168;51.120;17.024;2023-02-28T00:32:00;101540;;;-0.6;100.0
68320;BME280;55168;51.120;17.024;2023-02-28T00:33:00;101540;;;-0.6;100.0
68320;BME280;55168;51.120;17.024;2023-02-28T00:34:00;101530;;;-0.6;100.0
68320;BME280;55168;51.120;17.024;2023-02-28T00:35:00;101540;;;-0.5;100.0
68320;BME280;55168;51.120;17.024;2023-02-28T00:36:01;101530;;;-0.5;100.0
68320;BME280;55168;51.120;17.024;2023-02-28T00:37:00;101530;;;-0.6;100.0
68320;BME280;55168;51.120;17.024;2023-02-28T00:38:00;101530;;;-0.6;100.0
68320;BME280;55168;51.120;17.024;2023-02-28T00:39:00;101540;;;-0.5;100.0
68320;BME280;55168;51.120;17.024;2023-02-28T00:40:00;101530;;;-0.5;100.0
68320;BME280;55168;51.120;17.024;2023-02-28T00:41:00;101530;;;-0.6;100.0
68320;BME280;55168;51.120;17.024;2023-02-28T00:42:00;101530;;;-0.5;100.0
68320;BME280;55168;51.120;17.024;2023-02-28T00:43:00;101530;;;-0.5;100.0
68320;BME280;55168;51.120;17.024;2023-02-28T00:44:00;101530;;;-0.5;100.0
68320;BME280;55168;51.120;17.024;2023-02-28T00:45:00;101530;;;-0.5;100.0
68320;BME280;55168;51.120;17.024;2023-02-28T00:46:00;101530;;;-0.5;100.0
68320;BME280;55168;51.120;17.024;2023-02-28T00:47:00;101530;;;-0.5;100.0
68320;BME280;55168;51.120;17.024;2023-02-28T00:48:00;101530;;;-0.5;100.0
68320;BME280;55168;51.120;17.024;2023-02-28T00:49:00;101530;;;-0.5;100.0
68320;BME280;55168;51.120;17.024;2023-02-28T00:50:00;101530;;;-0.5;100.0
68320;BME280;55168;51.120;17.024;2023-02-28T00:51:00;101530;;;-0.6;100.0
68320;BME280;55168;51.120;17.024;2023-02-28T00:52:00;101530;;;-0.6;100.0
68320;BME280;55168;51.120;17.024;2023-02-28T00:53:00;101530;;;-0.6;100.0
68320;BME280;55168;51.120;17.024;2023-02-28T00:54:00;101530;;;-0.6;100.0
68320;BME280;55168;51.120;17.024;2023-02-28T00:55:00;101520;;;-0.6;100.0
68320;BME280;55168;51.120;17.024;2023-02-28T00:56:00;101530;;;-0.6;100.0
68320;BME280;55168;51.120;17.024;2023-02-28T00:57:00;101530;;;-0.6;100.0
68320;BME280;55168;51.120;17.024;2023-02-28T00:58:00;101530;;;-0.6;100.0
68320;BME280;55168;51.120;17.024;2023-02-28T00:59:00;101530;;;-0.6;100.0
68320;BME280;55168;51.120;17.024;2023-02-28T01:00:00;101520;;;-0.6;100.0
68320;BME280;55168;51.120;17.024;2023-02-28T01:01:00;101520;;;-0.6;100.0
68320;BME280;55168;51.120;17.024;2023-02-28T01:02:00;101520;;;-0.6;100.0
68320;BME280;55168;51.120;17.024;2023-02-28T01:03:00;101530;;;-0.5;100.0
68320;BME280;55168;51.120;17.024;2023-02-28T01:04:00;101530;;;-0.5;100.0
68320;BME280;55168;51.120;17.024;2023-02-28T01:05:00;101530;;;-0.5;100.0
68320;BME280;55168;51.120;17.024;2023-02-28T01:06:00;101530;;;-0.5;100.0
68320;BME280;55168;51.120;17.024;2023-02-28T01:07:00;101530;;;-0.5;100.0
68320;BME280;55168;51.120;17.024;2023-02-28T01:08:00;101530;;;-0.5;100.0
68320;BME280;55168;51.120;17.024;2023-02-28T01:09:00;101530;;;-0.4;100.0
68320;BME280;55168;51.120;17.024;2023-02-28T01:10:00;101530;;;-0.4;100.0
68320;BME280;55168;51.120;17.024;2023-02-28T01:11:06;101530;;;-0.4;100.0
68320;BME280;55168;51.120;17.024;2023-02-28T01:12:00;101530;;;-0.4;100.0
68320;BME280;55168;51.120;17.024;2023-02-28T01:13:00;101530;;;-0.4;100.0
68320;BME280;55168;51.120;17.024;2023-02-28T01:14:00;101530;;;-0.4;100.0
68320;BME280;55168;51.120;17.024;2023-02-28T01:15:00;101530;;;-0.4;100.0
68320;BME280;55168;51.120;17.024;2023-02-28T01:16:00;101530;;;-0.4;100.0
68320;BME280;55168;51.120;17.024;2023-02-28T01:17:00;101530;;;-0.5;100.0
68320;BME280;55168;51.120;17.024;2023-02-28T01:18:00;101530;;;-0.5;100.0
68320;BME280;55168;51.120;17.024;2023-02-28T01:19:00;101520;;;-0.5;100.0
68320;BME280;55168;51.120;17.024;2023-02-28T01:20:00;101520;;;-0.6;100.0
68320;BME280;55168;51.120;17.024;2023-02-28T01:21:17;101520;;;-0.6;100.0
68320;BME280;55168;51.120;17.024;2023-02-28T01:22:01;101520;;;-0.6;100.0
68320;BME280;55168;51.120;17.024;2023-02-28T01:23:00;101530;;;-0.6;100.0
68320;BME280;55168;51.120;17.024;2023-02-28T01:24:00;101520;;;-0.6;100.0
68320;BME280;55168;51.120;17.024;2023-02-28T01:25:00;101520;;;-0.6;100.0
68320;BME280;55168;51.120;17.024;2023-02-28T01:26:04;101520;;;-0.5;100.0
68320;BME280;55168;51.120;17.024;2023-02-28T01:27:00;101520;;;-0.5;100.0
68320;BME280;55168;51.120;17.024;2023-02-28T01:28:00;101520;;;-0.5;100.0
68320;BME280;55168;51.120;17.024;2023-02-28T01:29:00;101520;;;-0.5;100.0
68320;BME280;55168;51.120;17.024;2023-02-28T01:30:00;101520;;;-0.5;100.0
68320;BME280;55168;51.120;17.024;2023-02-28T01:31:00;101520;;;-0.5;100.0
68320;BME280;55168;51.120;17.024;2023-02-28T01:32:00;101520;;;-0.5;100.0
68320;BME280;55168;51.120;17.024;2023-02-28T01:33:00;101520;;;-0.5;100.0
68320;BME280;55168;51.120;17.024;2023-02-28T01:34:00;101520;;;-0.5;100.0
68320;BME280;55168;51.120;17.024;2023-02-28T01:35:00;101520;;;-0.5;100.0
68320;BME280;55168;51.120;17.024;2023-02-28T01:36:01;101520;;;-0.5;100.0
68320;BME280;55168;51.120;17.024;2023-02-28T01:37:00;101530;;;-0.5;100.0
68320;BME280;55168;51.120;17.024;2023-02-28T01:38:00;101520;;;-0.5;100.0
68320;BME280;55168;51.120;17.024;2023-02-28T01:39:00;101520;;;-0.5;100.0
68320;BME280;55168;51.120;17.024;2023-02-28T01:40:00;101520;;;-0.5;100.0
68320;BME280;55168;51.120;17.024;2023-02-28T01:41:00;101520;;;-0.5;100.0
68320;BME280;55168;51.120;17.024;2023-02-28T01:42:00;101520;;;-0.5;100.0
68320;BME280;55168;51.120;17.024;2023-02-28T01:43:00;101520;;;-0.5;100.0
68320;BME280;55168;51.120;17.024;2023-02-28T01:46:00;101520;;;-0.5;100.0
68320;BME280;55168;51.120;17.024;2023-02-28T01:47:00;101510;;;-0.5;100.0
68320;BME280;55168;51.120;17.024;2023-02-28T01:48:02;101520;;;-0.5;100.0
68320;BME280;55168;51.120;17.024;2023-02-28T01:49:02;101510;;;-0.5;100.0
68320;BME280;55168;51.120;17.024;2023-02-28T01:50:01;101510;;;-0.5;100.0
68320;BME280;55168;51.120;17.024;2023-02-28T01:51:01;101510;;;-0.4;100.0
68320;BME280;55168;51.120;17.024;2023-02-28T01:52:00;101510;;;-0.4;100.0
68320;BME280;55168;51.120;17.024;2023-02-28T01:53:01;101510;;;-0.4;100.0
68320;BME280;55168;51.120;17.024;2023-02-28T01:54:02;101510;;;-0.4;100.0
68320;BME280;55168;51.120;17.024;2023-02-28T01:55:00;101510;;;-0.4;100.0
68320;BME280;55168;51.120;17.024;2023-02-28T01:56:00;101510;;;-0.4;100.0
68320;BME280;55168;51.120;17.024;2023-02-28T01:57:01;101510;;;-0.4;100.0
68320;BME280;55168;51.120;17.024;2023-02-28T01:58:01;101510;;;-0.4;100.0
68320;BME280;55168;51.120;17.024;2023-02-28T01:59:00;101510;;;-0.4;100.0
68320;BME280;55168;51.120;17.024;2023-02-28T02:00:00;101520;;;-0.4;100.0
68320;BME280;55168;51.120;17.024;2023-02-28T02:01:00;101520;;;-0.4;100.0
68320;BME280;55168;51.120;17.024;2023-02-28T02:02:01;101510;;;-0.4;100.0
68320;BME280;55168;51.120;17.024;2023-02-28T02:03:01;101520;;;-0.4;100.0
68320;BME280;55168;51.120;17.024;2023-02-28T02:04:01;101520;;;-0.4;100.0
68320;BME280;55168;51.120;17.024;2023-02-28T02:05:02;101520;;;-0.4;100.0
68320;BME280;55168;51.120;17.024;2023-02-28T02:06:00;101520;;;-0.4;100.0
68320;BME280;55168;51.120;17.024;2023-02-28T02:07:00;101520;;;-0.4;100.0
68320;BME280;55168;51.120;17.024;2023-02-28T02:08:02;101520;;;-0.5;100.0
68320;BME280;55168;51.120;17.024;2023-02-28T02:09:00;101520;;;-0.5;100.0
68320;BME280;55168;51.120;17.024;2023-02-28T02:10:01;101520;;;-0.5;100.0
68320;BME280;55168;51.120;17.024;2023-02-28T02:11:00;101510;;;-0.5;100.0
68320;BME280;55168;51.120;17.024;2023-02-28T02:12:01;101510;;;-0.5;100.0
68320;BME280;55168;51.120;17.024;2023-02-28T02:14:07;101510;;;-0.5;100.0
68320;BME280;55168;51.120;17.024;2023-02-28T02:15:16;101520;;;-0.5;100.0
68320;BME280;55168;51.120;17.024;2023-02-28T02:17:04;101520;;;-0.5;100.0
68320;BME280;55168;51.120;17.024;2023-02-28T02:18:03;101520;;;-0.5;100.0
68320;BME280;55168;51.120;17.024;2023-02-28T02:19:23;101520;;;-0.4;100.0
68320;BME280;55168;51.120;17.024;2023-02-28T02:23:10;101510;;;-0.4;100.0
68320;BME280;55168;51.120;17.024;2023-02-28T02:26:08;101510;;;-0.4;100.0
68320;BME280;55168;51.120;17.024;2023-02-28T02:27:06;101510;;;-0.4;100.0
68320;BME280;55168;51.120;17.024;2023-02-28T02:28:06;101510;;;-0.4;100.0
68320;BME280;55168;51.120;17.024;2023-02-28T02:35:18;101510;;;-0.4;100.0
68320;BME280;55168;51.120;17.024;2023-02-28T02:39:02;101510;;;-0.6;100.0
68320;BME280;55168;51.120;17.024;2023-02-28T02:40:02;101510;;;-0.6;100.0
68320;BME280;55168;51.120;17.024;2023-02-28T02:42:01;101510;;;-0.6;100.0
68320;BME280;55168;51.120;17.024;2023-02-28T02:43:02;101510;;;-0.6;100.0
68320;BME280;55168;51.120;17.024;2023-02-28T02:44:19;101500;;;-0.5;100.0
68320;BME280;55168;51.120;17.024;2023-02-28T02:45:01;101510;;;-0.5;100.0
68320;BME280;55168;51.120;17.024;2023-02-28T02:46:02;101510;;;-0.5;100.0
68320;BME280;55168;51.120;17.024;2023-02-28T02:47:03;101510;;;-0.5;100.0
68320;BME280;55168;51.120;17.024;2023-02-28T02:48:00;101510;;;-0.5;100.0
68320;BME280;55168;51.120;17.024;2023-02-28T02:49:00;101510;;;-0.5;100.0
68320;BME280;55168;51.120;17.024;2023-02-28T02:50:01;101510;;;-0.5;100.0
68320;BME280;55168;51.120;17.024;2023-02-28T02:51:02;101510;;;-0.5;100.0
68320;BME280;55168;51.120;17.024;2023-02-28T02:52:02;101510;;;-0.5;100.0
68320;BME280;55168;51.120;17.024;2023-02-28T02:53:00;101510;;;-0.5;100.0
68320;BME280;55168;51.120;17.024;2023-02-28T02:55:00;101500;;;-0.6;100.0
68320;BME280;55168;51.120;17.024;2023-02-28T02:56:00;101510;;;-0.6;100.0
68320;BME280;55168;51.120;17.024;2023-02-28T02:57:01;101510;;;-0.7;100.0
68320;BME280;55168;51.120;17.024;2023-02-28T02:58:02;101510;;;-0.7;100.0
68320;BME280;55168;51.120;17.024;2023-02-28T02:59:01;101510;;;-0.7;100.0
68320;BME280;55168;51.120;17.024;2023-02-28T03:00:00;101510;;;-0.7;100.0
68320;BME280;55168;51.120;17.024;2023-02-28T03:01:00;101510;;;-0.7;100.0
68320;BME280;55168;51.120;17.024;2023-02-28T03:02:01;101510;;;-0.7;100.0
68320;BME280;55168;51.120;17.024;2023-02-28T03:03:00;101510;;;-0.7;100.0
68320;BME280;55168;51.120;17.024;2023-02-28T03:04:01;101510;;;-0.7;100.0
68320;BME280;55168;51.120;17.024;2023-02-28T03:05:01;101510;;;-0.7;100.0
68320;BME280;55168;51.120;17.024;2023-02-28T03:06:00;101510;;;-0.7;100.0
68320;BME280;55168;51.120;17.024;2023-02-28T03:07:00;101510;;;-0.7;100.0
68320;BME280;55168;51.120;17.024;2023-02-28T03:08:02;101510;;;-0.7;100.0
68320;BME280;55168;51.120;17.024;2023-02-28T03:09:00;101510;;;-0.7;100.0
68320;BME280;55168;51.120;17.024;2023-02-28T03:10:00;101510;;;-0.6;100.0
68320;BME280;55168;51.120;17.024;2023-02-28T03:11:01;101510;;;-0.7;100.0
68320;BME280;55168;51.120;17.024;2023-02-28T03:12:00;101520;;;-0.6;100.0
68320;BME280;55168;51.120;17.024;2023-02-28T03:13:03;101510;;;-0.7;100.0
68320;BME280;55168;51.120;17.024;2023-02-28T03:15:05;101510;;;-0.7;100.0
68320;BME280;55168;51.120;17.024;2023-02-28T03:16:05;101510;;;-0.7;100.0
68320;BME280;55168;51.120;17.024;2023-02-28T03:18:02;101510;;;-0.7;100.0
68320;BME280;55168;51.120;17.024;2023-02-28T03:21:03;101520;;;-0.7;100.0
68320;BME280;55168;51.120;17.024;2023-02-28T03:24:03;101520;;;-0.8;100.0
68320;BME280;55168;51.120;17.024;2023-02-28T03:25:04;101510;;;-0.8;100.0
68320;BME280;55168;51.120;17.024;2023-02-28T03:26:09;101510;;;-0.7;100.0
68320;BME280;55168;51.120;17.024;2023-02-28T03:27:06;101520;;;-0.7;100.0
68320;BME280;55168;51.120;17.024;2023-02-28T03:28:08;101520;;;-0.7;100.0
68320;BME280;55168;51.120;17.024;2023-02-28T03:29:02;101520;;;-0.7;100.0
68320;BME280;55168;51.120;17.024;2023-02-28T03:30:03;101520;;;-0.7;100.0
68320;BME280;55168;51.120;17.024;2023-02-28T03:31:02;101520;;;-0.7;100.0
68320;BME280;55168;51.120;17.024;2023-02-28T03:32:04;101520;;;-0.7;100.0
68320;BME280;55168;51.120;17.024;2023-02-28T03:33:03;101520;;;-0.7;100.0
68320;BME280;55168;51.120;17.024;2023-02-28T03:34:03;101520;;;-0.7;100.0
68320;BME280;55168;51.120;17.024;2023-02-28T03:35:03;101520;;;-0.7;100.0
68320;BME280;55168;51.120;17.024;2023-02-28T03:36:02;101530;;;-0.8;100.0
68320;BME280;55168;51.120;17.024;2023-02-28T03:37:02;101520;;;-0.8;100.0
68320;BME280;55168;51.120;17.024;2023-02-28T03:38:05;101520;;;-0.8;100.0
68320;BME280;55168;51.120;17.024;2023-02-28T03:39:02;101530;;;-0.7;100.0
68320;BME280;55168;51.120;17.024;2023-02-28T03:40:01;101530;;;-0.7;100.0
68320;BME280;55168;51.120;17.024;2023-02-28T03:41:02;101530;;;-0.7;100.0
68320;BME280;55168;51.120;17.024;2023-02-28T03:42:00;101530;;;-0.7;100.0
68320;BME280;55168;51.120;17.024;2023-02-28T03:43:02;101520;;;-0.7;100.0
68320;BME280;55168;51.120;17.024;2023-02-28T03:44:02;101520;;;-0.7;100.0
68320;BME280;55168;51.120;17.024;2023-02-28T03:45:01;101530;;;-0.7;100.0
68320;BME280;55168;51.120;17.024;2023-02-28T03:46:00;101530;;;-0.6;100.0
68320;BME280;55168;51.120;17.024;2023-02-28T03:47:01;101530;;;-0.6;100.0
68320;BME280;55168;51.120;17.024;2023-02-28T03:48:09;101530;;;-0.6;100.0
68320;BME280;55168;51.120;17.024;2023-02-28T03:49:02;101530;;;-0.6;100.0
68320;BME280;55168;51.120;17.024;2023-02-28T03:50:03;101530;;;-0.7;100.0
68320;BME280;55168;51.120;17.024;2023-02-28T03:51:00;101530;;;-0.7;100.0
68320;BME280;55168;51.120;17.024;2023-02-28T03:52:00;101530;;;-0.7;100.0
68320;BME280;55168;51.120;17.024;2023-02-28T03:53:04;101530;;;-0.7;100.0
68320;BME280;55168;51.120;17.024;2023-02-28T03:54:03;101530;;;-0.7;100.0
68320;BME280;55168;51.120;17.024;2023-02-28T03:55:01;101530;;;-0.7;100.0
68320;BME280;55168;51.120;17.024;2023-02-28T03:56:03;101530;;;-0.7;100.0
68320;BME280;55168;51.120;17.024;2023-02-28T03:57:22;101530;;;-0.7;100.0
68320;BME280;55168;51.120;17.024;2023-02-28T03:59:01;101530;;;-0.7;100.0
68320;BME280;55168;51.120;17.024;2023-02-28T04:00:02;101530;;;-0.6;100.0
68320;BME280;55168;51.120;17.024;2023-02-28T04:01:03;101530;;;-0.6;100.0
68320;BME280;55168;51.120;17.024;2023-02-28T04:02:00;101530;;;-0.7;100.0
68320;BME280;55168;51.120;17.024;2023-02-28T04:03:00;101540;;;-0.7;100.0
68320;BME280;55168;51.120;17.024;2023-02-28T04:04:00;101530;;;-0.7;100.0
68320;BME280;55168;51.120;17.024;2023-02-28T04:05:00;101540;;;-0.7;100.0
68320;BME280;55168;51.120;17.024;2023-02-28T04:06:00;101540;;;-0.7;100.0
68320;BME280;55168;51.120;17.024;2023-02-28T04:07:01;101530;;;-0.7;100.0
68320;BME280;55168;51.120;17.024;2023-02-28T04:08:07;101530;;;-0.7;100.0
68320;BME280;55168;51.120;17.024;2023-02-28T04:09:00;101530;;;-0.7;100.0
68320;BME280;55168;51.120;17.024;2023-02-28T04:10:00;101530;;;-0.7;100.0
68320;BME280;55168;51.120;17.024;2023-02-28T04:11:03;101530;;;-0.7;100.0
68320;BME280;55168;51.120;17.024;2023-02-28T04:12:00;101530;;;-0.7;100.0
68320;BME280;55168;51.120;17.024;2023-02-28T04:13:00;101530;;;-0.7;100.0
68320;BME280;55168;51.120;17.024;2023-02-28T04:14:00;101530;;;-0.7;100.0
68320;BME280;55168;51.120;17.024;2023-02-28T04:15:00;101530;;;-0.7;100.0
68320;BME280;55168;51.120;17.024;2023-02-28T04:16:00;101540;;;-0.7;100.0
68320;BME280;55168;51.120;17.024;2023-02-28T04:17:00;101530;;;-0.7;100.0
68320;BME280;55168;51.120;17.024;2023-02-28T04:18:00;101540;;;-0.7;100.0
68320;BME280;55168;51.120;17.024;2023-02-28T04:19:00;101540;;;-0.7;100.0
68320;BME280;55168;51.120;17.024;2023-02-28T04:20:00;101540;;;-0.7;100.0
68320;BME280;55168;51.120;17.024;2023-02-28T04:21:00;101540;;;-0.7;100.0
68320;BME280;55168;51.120;17.024;2023-02-28T04:22:00;101540;;;-0.7;100.0
68320;BME280;55168;51.120;17.024;2023-02-28T04:23:00;101540;;;-0.7;100.0
68320;BME280;55168;51.120;17.024;2023-02-28T04:24:00;101540;;;-0.8;100.0
68320;BME280;55168;51.120;17.024;2023-02-28T04:25:00;101540;;;-0.8;100.0
68320;BME280;55168;51.120;17.024;2023-02-28T04:26:00;101540;;;-0.7;100.0
68320;BME280;55168;51.120;17.024;2023-02-28T04:27:00;101540;;;-0.7;100.0
68320;BME280;55168;51.120;17.024;2023-02-28T04:28:00;101540;;;-0.7;100.0
68320;BME280;55168;51.120;17.024;2023-02-28T04:29:00;101540;;;-0.7;100.0
68320;BME280;55168;51.120;17.024;2023-02-28T04:30:00;101540;;;-0.8;100.0
68320;BME280;55168;51.120;17.024;2023-02-28T04:31:01;101550;;;-0.7;100.0
68320;BME280;55168;51.120;17.024;2023-02-28T04:32:00;101550;;;-0.7;100.0
68320;BME280;55168;51.120;17.024;2023-02-28T04:33:00;101550;;;-0.7;100.0
68320;BME280;55168;51.120;17.024;2023-02-28T04:34:00;101550;;;-0.8;100.0
68320;BME280;55168;51.120;17.024;2023-02-28T04:35:00;101550;;;-0.7;100.0
68320;BME280;55168;51.120;17.024;2023-02-28T04:36:01;101550;;;-0.7;100.0
68320;BME280;55168;51.120;17.024;2023-02-28T04:37:00;101550;;;-0.7;100.0
68320;BME280;55168;51.120;17.024;2023-02-28T04:38:00;101550;;;-0.7;100.0
68320;BME280;55168;51.120;17.024;2023-02-28T04:39:00;101550;;;-0.7;100.0
68320;BME280;55168;51.120;17.024;2023-02-28T04:40:00;101550;;;-0.7;100.0
68320;BME280;55168;51.120;17.024;2023-02-28T04:41:00;101550;;;-0.7;100.0
68320;BME280;55168;51.120;17.024;2023-02-28T04:42:00;101550;;;-0.7;100.0
68320;BME280;55168;51.120;17.024;2023-02-28T04:43:00;101550;;;-0.7;100.0
68320;BME280;55168;51.120;17.024;2023-02-28T04:44:00;101540;;;-0.7;100.0
68320;BME280;55168;51.120;17.024;2023-02-28T04:45:00;101550;;;-0.7;100.0
68320;BME280;55168;51.120;17.024;2023-02-28T04:46:01;101550;;;-0.7;100.0
68320;BME280;55168;51.120;17.024;2023-02-28T04:47:00;101550;;;-0.8;100.0
68320;BME280;55168;51.120;17.024;2023-02-28T04:48:00;101550;;;-0.8;100.0
68320;BME280;55168;51.120;17.024;2023-02-28T04:49:00;101550;;;-0.8;100.0
68320;BME280;55168;51.120;17.024;2023-02-28T04:50:00;101550;;;-0.8;100.0
68320;BME280;55168;51.120;17.024;2023-02-28T04:51:00;101550;;;-0.8;100.0
68320;BME280;55168;51.120;17.024;2023-02-28T04:52:00;101550;;;-0.8;100.0
68320;BME280;55168;51.120;17.024;2023-02-28T04:53:00;101550;;;-0.8;100.0
68320;BME280;55168;51.120;17.024;2023-02-28T04:54:00;101550;;;-0.8;100.0
68320;BME280;55168;51.120;17.024;2023-02-28T04:55:00;101550;;;-0.8;100.0
68320;BME280;55168;51.120;17.024;2023-02-28T04:56:00;101550;;;-0.8;100.0
68320;BME280;55168;51.120;17.024;2023-02-28T04:57:00;101550;;;-0.8;100.0
68320;BME280;55168;51.120;17.024;2023-02-28T04:58:00;101550;;;-0.8;100.0
68320;BME280;55168;51.120;17.024;2023-02-28T04:59:00;101550;;;-0.8;100.0
68320;BME280;55168;51.120;17.024;2023-02-28T05:00:00;101550;;;-0.8;100.0
68320;BME280;55168;51.120;17.024;2023-02-28T05:01:02;101550;;;-0.8;100.0
68320;BME280;55168;51.120;17.024;2023-02-28T05:02:00;101550;;;-0.8;100.0
68320;BME280;55168;51.120;17.024;2023-02-28T05:03:00;101550;;;-0.8;100.0
68320;BME280;55168;51.120;17.024;2023-02-28T05:04:01;101560;;;-0.8;100.0
68320;BME280;55168;51.120;17.024;2023-02-28T05:05:00;101560;;;-0.8;100.0
68320;BME280;55168;51.120;17.024;2023-02-28T05:06:00;101560;;;-0.8;100.0
68320;BME280;55168;51.120;17.024;2023-02-28T05:07:00;101560;;;-0.8;100.0
68320;BME280;55168;51.120;17.024;2023-02-28T05:08:00;101560;;;-0.8;100.0
68320;BME280;55168;51.120;17.024;2023-02-28T05:09:00;101560;;;-0.8;100.0
68320;BME280;55168;51.120;17.024;2023-02-28T05:10:00;101550;;;-0.8;100.0
68320;BME280;55168;51.120;17.024;2023-02-28T05:11:00;101550;;;-0.8;100.0
68320;BME280;55168;51.120;17.024;2023-02-28T05:12:00;101550;;;-0.8;100.0
68320;BME280;55168;51.120;17.024;2023-02-28T05:13:00;101550;;;-0.8;100.0
68320;BME280;55168;51.120;17.024;2023-02-28T05:14:02;101550;;;-0.8;100.0
68320;BME280;55168;51.120;17.024;2023-02-28T05:15:00;101550;;;-0.8;100.0
68320;BME280;55168;51.120;17.024;2023-02-28T05:16:00;101560;;;-0.8;100.0
68320;BME280;55168;51.120;17.024;2023-02-28T05:17:00;101560;;;-0.8;100.0
68320;BME280;55168;51.120;17.024;2023-02-28T05:18:00;101560;;;-0.8;100.0
68320;BME280;55168;51.120;17.024;2023-02-28T05:19:00;101560;;;-0.8;100.0
68320;BME280;55168;51.120;17.024;2023-02-28T05:20:00;101560;;;-0.8;100.0
68320;BME280;55168;51.120;17.024;2023-02-28T05:21:00;101560;;;-0.8;100.0
68320;BME280;55168;51.120;17.024;2023-02-28T05:22:00;101560;;;-0.8;100.0
68320;BME280;55168;51.120;17.024;2023-02-28T05:23:00;101560;;;-0.8;100.0
68320;BME280;55168;51.120;17.024;2023-02-28T05:24:02;101560;;;-0.8;100.0
68320;BME280;55168;51.120;17.024;2023-02-28T05:25:00;101560;;;-0.8;100.0
68320;BME280;55168;51.120;17.024;2023-02-28T05:26:00;101560;;;-0.8;100.0
68320;BME280;55168;51.120;17.024;2023-02-28T05:27:00;101560;;;-0.8;100.0
68320;BME280;55168;51.120;17.024;2023-02-28T05:28:00;101560;;;-0.8;100.0
68320;BME280;55168;51.120;17.024;2023-02-28T05:29:00;101560;;;-0.8;100.0
68320;BME280;55168;51.120;17.024;2023-02-28T05:30:00;101560;;;-0.8;100.0
68320;BME280;55168;51.120;17.024;2023-02-28T05:31:00;101560;;;-0.8;100.0
68320;BME280;55168;51.120;17.024;2023-02-28T05:32:00;101560;;;-0.8;100.0
68320;BME280;55168;51.120;17.024;2023-02-28T05:33:00;101560;;;-0.8;100.0
68320;BME280;55168;51.120;17.024;2023-02-28T05:34:00;101560;;;-0.8;100.0
68320;BME280;55168;51.120;17.024;2023-02-28T05:35:00;101560;;;-0.9;100.0
68320;BME280;55168;51.120;17.024;2023-02-28T05:36:00;101560;;;-0.9;100.0
68320;BME280;55168;51.120;17.024;2023-02-28T05:37:00;101560;;;-0.8;100.0
68320;BME280;55168;51.120;17.024;2023-02-28T05:38:00;101560;;;-0.8;100.0
68320;BME280;55168;51.120;17.024;2023-02-28T05:39:00;101560;;;-0.8;100.0
68320;BME280;55168;51.120;17.024;2023-02-28T05:40:00;101570;;;-0.8;100.0
68320;BME280;55168;51.120;17.024;2023-02-28T05:41:00;101560;;;-0.8;100.0
68320;BME280;55168;51.120;17.024;2023-02-28T05:42:00;101570;;;-0.8;100.0
68320;BME280;55168;51.120;17.024;2023-02-28T05:43:00;101570;;;-0.8;100.0
68320;BME280;55168;51.120;17.024;2023-02-28T05:44:00;101570;;;-0.8;100.0
68320;BME280;55168;51.120;17.024;2023-02-28T05:45:00;101560;;;-0.8;100.0
68320;BME280;55168;51.120;17.024;2023-02-28T05:46:02;101570;;;-0.8;100.0
68320;BME280;55168;51.120;17.024;2023-02-28T05:47:00;101570;;;-0.8;100.0
68320;BME280;55168;51.120;17.024;2023-02-28T05:48:00;101570;;;-0.8;100.0
68320;BME280;55168;51.120;17.024;2023-02-28T05:49:00;101570;;;-0.8;100.0
68320;BME280;55168;51.120;17.024;2023-02-28T05:50:00;101570;;;-0.8;100.0
68320;BME280;55168;51.120;17.024;2023-02-28T05:51:00;101570;;;-0.8;100.0
68320;BME280;55168;51.120;17.024;2023-02-28T05:52:00;101580;;;-0.8;100.0
68320;BME280;55168;51.120;17.024;2023-02-28T05:53:00;101580;;;-0.8;100.0